Time;durP1;ratioP1;P1;durP2;ratioP2;P2;SDS_P1;SDS_P2;PMS_P1;PMS_P2;Temp;Humidity;BMP_temperature;BMP_pressure;BME280_temperature;BME280_humidity;BME280_pressure;Samples;Min_cycle;Max_cycle;Signal;HPM_P1;HPM_P2
2022/01/16 00:04:48;;;;;;;42.85;24.58;;;2.50;99.90;;;;;;5027548;28;20221;-85
2022/01/16 00:07:17;;;;;;;51.78;27.15;;;2.50;99.90;;;;;;5035842;28;20250;-83
2022/01/16 00:09:44;;;;;;;45.42;28.60;;;2.50;99.90;;;;;;5041120;28;20584;-86
2022/01/16 00:12:11;;;;;;;53.58;29.40;;;2.50;99.90;;;;;;5040104;28;20225;-86
2022/01/16 00:14:38;;;;;;;48.88;28.20;;;2.50;99.90;;;;;;5047231;28;20222;-86
2022/01/16 00:17:05;;;;;;;45.70;27.63;;;2.50;99.90;;;;;;5028377;28;20220;-85
2022/01/16 00:19:32;;;;;;;44.10;28.90;;;2.50;99.90;;;;;;5050943;28;20207;-86
2022/01/16 00:21:58;;;;;;;42.65;27.60;;;2.50;99.90;;;;;;5068324;23;20483;-85
2022/01/16 00:24:27;;;;;;;45.33;27.73;;;2.50;99.90;;;;;;5052839;23;20196;-85
2022/01/16 00:26:54;;;;;;;41.00;26.45;;;2.50;99.90;;;;;;5035151;28;20273;-84
2022/01/16 00:29:20;;;;;;;40.95;24.75;;;2.40;99.90;;;;;;5049580;28;20283;-85
2022/01/16 00:31:47;;;;;;;46.03;29.52;;;2.40;99.90;;;;;;5046424;28;20196;-86
2022/01/16 00:34:14;;;;;;;43.35;27.33;;;2.40;99.90;;;;;;5022971;28;20202;-86
2022/01/16 00:36:41;;;;;;;39.50;24.35;;;2.40;99.90;;;;;;5023244;28;20204;-85
2022/01/16 00:39:09;;;;;;;42.88;27.90;;;2.40;99.90;;;;;;5021043;28;20237;-86
2022/01/16 00:41:37;;;;;;;42.17;24.45;;;2.40;99.90;;;;;;5013383;28;20206;-86
2022/01/16 00:44:05;;;;;;;40.47;26.08;;;2.40;99.90;;;;;;5011180;28;20199;-86
2022/01/16 00:46:33;;;;;;;42.33;25.95;;;2.40;99.90;;;;;;5005172;28;20204;-85
2022/01/16 00:48:59;;;;;;;36.33;25.15;;;2.40;99.90;;;;;;5003522;28;20201;-84
2022/01/16 00:51:26;;;;;;;40.67;26.17;;;2.30;99.90;;;;;;5002439;28;20211;-85
2022/01/16 00:53:55;;;;;;;45.53;26.70;;;2.30;99.90;;;;;;5002020;28;20211;-85
2022/01/16 00:56:22;;;;;;;48.67;27.75;;;2.30;99.90;;;;;;5001082;28;20255;-85
2022/01/16 00:58:50;;;;;;;44.28;26.85;;;2.30;99.90;;;;;;5002676;28;20594;-84
2022/01/16 01:01:18;;;;;;;45.85;27.63;;;2.30;99.90;;;;;;5006169;28;20238;-85
2022/01/16 01:03:45;;;;;;;47.13;26.77;;;2.20;99.90;;;;;;5022419;28;20207;-85
2022/01/16 01:06:12;;;;;;;47.92;28.83;;;2.20;99.90;;;;;;5020908;28;20219;-85
2022/01/16 01:08:38;;;;;;;44.33;26.48;;;2.30;99.90;;;;;;5025463;28;20201;-85
2022/01/16 01:11:07;;;;;;;44.28;28.05;;;2.30;99.90;;;;;;5023122;28;20200;-86
2022/01/16 01:13:54;;;;;;;42.10;26.73;;;2.30;99.90;;;;;;5013487;28;20238;-86
2022/01/16 01:16:23;;;;;;;43.53;26.80;;;2.30;99.90;;;;;;5000348;28;21112;-85
2022/01/16 01:18:53;;;;;;;40.03;27.02;;;2.30;99.90;;;;;;5000207;28;20219;-85
2022/01/16 01:21:28;;;;;;;43.05;27.10;;;2.30;99.90;;;;;;5000745;28;20297;-85
2022/01/16 01:23:55;;;;;;;45.13;25.77;;;2.20;99.90;;;;;;5002082;28;20216;-85
2022/01/16 01:26:26;;;;;;;42.10;27.42;;;2.30;99.90;;;;;;5013185;28;20254;-86
2022/01/16 01:28:54;;;;;;;41.17;27.05;;;2.20;99.90;;;;;;5002181;28;20212;-84
2022/01/16 01:31:22;;;;;;;41.10;26.58;;;2.30;99.90;;;;;;5006413;28;20233;-85
2022/01/16 01:33:48;;;;;;;40.88;26.08;;;2.30;99.90;;;;;;5011186;28;20212;-85
2022/01/16 01:36:15;;;;;;;34.63;24.88;;;2.20;99.90;;;;;;5011574;28;20245;-86
2022/01/16 01:38:42;;;;;;;35.83;24.77;;;2.20;99.90;;;;;;5014075;28;20218;-85
2022/01/16 01:41:09;;;;;;;43.07;27.10;;;2.20;99.90;;;;;;5013000;28;20211;-85
2022/01/16 01:51:50;;;;;;;39.90;23.85;;;2.20;99.90;;;;;;5007629;28;20215;-84
2022/01/16 01:56:52;;;;;;;33.40;21.52;;;2.20;99.90;;;;;;5023928;28;20262;-90
2022/01/16 01:59:19;;;;;;;36.75;21.52;;;2.20;99.90;;;;;;5020979;28;20226;-92
2022/01/16 02:01:47;;;;;;;37.55;23.48;;;2.10;99.90;;;;;;5019351;28;20200;-91
2022/01/16 02:04:14;;;;;;;34.78;21.17;;;2.10;99.90;;;;;;5018439;28;20196;-92
2022/01/16 02:06:41;;;;;;;38.67;23.52;;;2.10;99.90;;;;;;4999308;28;20202;-92
2022/01/16 02:09:08;;;;;;;39.08;23.27;;;2.10;99.90;;;;;;5005283;28;20198;-91
2022/01/16 02:11:36;;;;;;;41.22;23.65;;;2.10;99.90;;;;;;5005479;28;20201;-90
2022/01/16 02:14:11;;;;;;;44.20;23.30;;;2.10;99.90;;;;;;4999594;28;20211;-91
2022/01/16 02:28:06;;;;;;;43.45;24.00;;;2.00;99.90;;;;;;4999557;28;20249;-91
2022/01/16 02:34:30;;;;;;;37.78;24.25;;;2.20;99.90;;;;;;5000110;28;20203;-91
2022/01/16 02:36:22;;;;;;;39.47;24.08;;;2.20;99.90;;;;;;4997684;28;20266;-91
2022/01/16 02:38:51;;;;;;;41.05;24.58;;;2.20;99.90;;;;;;4998831;28;20306;-91
2022/01/16 02:41:17;;;;;;;42.42;25.92;;;2.20;99.90;;;;;;4999915;28;20213;-91
2022/01/16 02:43:49;;;;;;;41.47;26.25;;;2.20;99.90;;;;;;5000543;28;20659;-91
2022/01/16 02:49:00;;;;;;;42.15;28.45;;;2.20;99.90;;;;;;5010479;28;20201;-91
2022/01/16 02:51:29;;;;;;;42.08;24.95;;;2.20;99.90;;;;;;5003153;28;20214;-91
2022/01/16 02:53:57;;;;;;;47.97;26.23;;;2.20;99.90;;;;;;5002511;28;20206;-91
2022/01/16 02:56:24;;;;;;;44.05;26.33;;;2.10;99.90;;;;;;5005926;28;20734;-91
2022/01/16 02:58:52;;;;;;;50.25;25.15;;;2.20;99.90;;;;;;5010682;28;20216;-91
2022/01/16 03:01:20;;;;;;;36.08;23.15;;;2.20;99.90;;;;;;5015597;28;20208;-90
2022/01/16 03:03:47;;;;;;;39.85;25.58;;;2.20;99.90;;;;;;5012962;28;20204;-90
2022/01/16 03:06:14;;;;;;;40.92;25.95;;;2.20;99.90;;;;;;5004998;28;20215;-91
2022/01/16 03:08:41;;;;;;;43.08;24.92;;;2.20;99.90;;;;;;5002669;28;20214;-91
2022/01/16 03:11:24;;;;;;;41.30;24.33;;;2.20;99.90;;;;;;5001264;28;20210;-90
2022/01/16 03:13:51;;;;;;;48.15;25.95;;;2.30;99.90;;;;;;5001674;28;20208;-90
2022/01/16 03:16:20;;;;;;;40.00;26.17;;;2.30;99.90;;;;;;5001329;28;20613;-90
2022/01/16 03:24:16;;;;;;;35.55;25.55;;;2.20;99.90;;;;;;5004919;28;20175;-91
2022/01/16 03:26:44;;;;;;;42.05;26.60;;;2.20;99.90;;;;;;5004698;28;20200;-91
2022/01/16 03:29:11;;;;;;;43.80;26.02;;;2.20;99.90;;;;;;5001005;28;20208;-91
2022/01/16 03:31:38;;;;;;;33.35;22.83;;;2.10;99.90;;;;;;5006919;28;20209;-90
2022/01/16 03:34:05;;;;;;;39.75;25.25;;;2.10;99.90;;;;;;5020687;28;20192;-91
2022/01/16 03:36:32;;;;;;;37.80;22.73;;;2.00;99.90;;;;;;5002813;28;20863;-90
2022/01/16 03:38:59;;;;;;;37.15;23.98;;;1.90;99.90;;;;;;5001543;28;20232;-91
2022/01/16 03:41:27;;;;;;;36.75;23.25;;;1.80;99.90;;;;;;5019377;28;20187;-91
2022/01/16 03:44:01;;;;;;;36.15;23.40;;;1.90;99.90;;;;;;5019306;28;20255;-91
2022/01/16 03:46:34;;;;;;;37.05;24.38;;;2.00;99.90;;;;;;4996293;28;20204;-91
2022/01/16 03:49:02;;;;;;;34.33;23.38;;;2.00;99.90;;;;;;4999186;28;20284;-91
2022/01/16 03:51:29;;;;;;;38.72;24.27;;;2.00;99.90;;;;;;4985685;28;20193;-91
2022/01/16 03:53:56;;;;;;;39.33;24.33;;;2.00;99.90;;;;;;4993002;28;20204;-91
2022/01/16 03:56:22;;;;;;;33.65;22.55;;;2.00;99.90;;;;;;5001309;28;20580;-90
2022/01/16 03:58:49;;;;;;;38.65;26.10;;;1.90;99.90;;;;;;5005643;28;20606;-91
2022/01/16 04:01:18;;;;;;;38.60;23.35;;;1.90;99.90;;;;;;5012618;28;20200;-90
2022/01/16 04:03:45;;;;;;;37.85;23.75;;;1.90;99.90;;;;;;5002337;28;20216;-91
2022/01/16 04:06:12;;;;;;;36.05;22.02;;;1.90;99.90;;;;;;5000310;28;20271;-91
2022/01/16 04:08:39;;;;;;;37.75;23.98;;;1.90;99.90;;;;;;5006396;28;20215;-91
2022/01/16 04:11:07;;;;;;;38.70;23.92;;;1.90;99.90;;;;;;5010294;28;20211;-91
2022/01/16 04:13:34;;;;;;;32.72;22.77;;;1.90;99.90;;;;;;5002734;28;20267;-91
2022/01/16 04:16:01;;;;;;;34.88;23.05;;;1.80;99.90;;;;;;5002368;28;20229;-91
2022/01/16 04:18:29;;;;;;;42.00;23.38;;;1.90;99.90;;;;;;5007899;28;20227;-91
2022/01/16 04:20:57;;;;;;;36.15;22.60;;;1.90;99.90;;;;;;5000389;28;20216;-91
2022/01/16 04:23:24;;;;;;;39.15;22.50;;;1.90;99.90;;;;;;5012511;28;20268;-91
2022/01/16 04:25:51;;;;;;;35.63;23.05;;;1.90;99.90;;;;;;5001438;28;20225;-92
2022/01/16 04:28:23;;;;;;;34.30;23.57;;;1.90;99.90;;;;;;4998393;28;20262;-92
2022/01/16 04:30:50;;;;;;;35.65;24.63;;;1.90;99.90;;;;;;4999068;28;20446;-91
2022/01/16 04:33:17;;;;;;;33.58;22.98;;;1.80;99.90;;;;;;5000368;28;20197;-91
2022/01/16 04:35:45;;;;;;;33.85;22.73;;;1.80;99.90;;;;;;5011595;28;20222;-91
2022/01/16 04:38:12;;;;;;;36.50;22.48;;;1.80;99.90;;;;;;5010533;28;20758;-90
2022/01/16 04:40:45;;;;;;;32.67;22.42;;;1.70;99.90;;;;;;5010978;28;20231;-91
2022/01/16 04:45:57;;;;;;;32.88;21.27;;;1.60;99.90;;;;;;5004132;28;20222;-91
2022/01/16 04:48:24;;;;;;;33.13;23.58;;;1.60;99.90;;;;;;5001628;28;20204;-91
2022/01/16 04:50:53;;;;;;;33.33;22.02;;;1.50;99.90;;;;;;5006520;28;20200;-91
2022/01/16 04:53:19;;;;;;;41.40;23.25;;;1.60;99.90;;;;;;5015601;28;20206;-91
2022/01/16 04:55:48;;;;;;;34.90;22.20;;;1.60;99.90;;;;;;5008440;28;20237;-91
2022/01/16 04:58:15;;;;;;;32.58;22.80;;;1.50;99.90;;;;;;5006353;28;20200;-90
2022/01/16 05:00:42;;;;;;;34.70;22.63;;;1.50;99.90;;;;;;5000996;28;20237;-91
2022/01/16 05:03:09;;;;;;;35.05;22.10;;;1.50;99.90;;;;;;5003632;28;20257;-91
2022/01/16 05:05:36;;;;;;;33.50;21.90;;;1.50;99.90;;;;;;5006757;28;20217;-91
2022/01/16 05:08:04;;;;;;;32.72;21.17;;;1.50;99.90;;;;;;5001997;28;20201;-91
2022/01/16 05:10:31;;;;;;;32.92;21.92;;;1.50;99.90;;;;;;5000160;28;20657;-91
2022/01/16 05:13:15;;;;;;;34.55;23.20;;;1.50;99.90;;;;;;5003050;28;20212;-91
2022/01/16 05:18:27;;;;;;;33.55;22.52;;;1.50;99.90;;;;;;4985531;28;20176;-91
2022/01/16 05:20:53;;;;;;;37.47;21.85;;;1.50;99.90;;;;;;4997670;28;20188;-91
2022/01/16 05:23:22;;;;;;;33.55;21.80;;;1.50;99.90;;;;;;4999052;28;20201;-91
2022/01/16 05:25:49;;;;;;;34.55;21.10;;;1.40;99.90;;;;;;4998357;28;20594;-91
2022/01/16 05:28:15;;;;;;;35.40;21.30;;;1.50;99.90;;;;;;4998642;28;20214;-91
2022/01/16 05:30:42;;;;;;;32.10;22.05;;;1.40;99.90;;;;;;4998672;28;20211;-90
2022/01/16 05:33:10;;;;;;;35.92;22.92;;;1.40;99.90;;;;;;5002572;28;20205;-91
2022/01/16 05:35:37;;;;;;;28.67;19.98;;;1.40;99.90;;;;;;5003942;28;20237;-90
2022/01/16 05:38:04;;;;;;;33.97;22.67;;;1.40;99.90;;;;;;4999171;28;20223;-91
2022/01/16 05:40:33;;;;;;;35.03;23.10;;;1.30;99.90;;;;;;5000648;28;20235;-91
2022/01/16 05:43:07;;;;;;;30.15;19.80;;;1.30;99.90;;;;;;4998989;28;20203;-91
2022/01/16 05:45:34;;;;;;;30.25;19.73;;;1.30;99.90;;;;;;4998973;28;20228;-91
2022/01/16 05:48:01;;;;;;;29.05;19.30;;;1.30;99.90;;;;;;5004957;28;20204;-91
2022/01/16 05:50:28;;;;;;;31.20;21.88;;;1.20;99.90;;;;;;4998312;28;20315;-91
2022/01/16 05:52:55;;;;;;;31.52;20.40;;;1.20;99.90;;;;;;5000378;28;20208;-91
2022/01/16 05:55:22;;;;;;;31.95;20.77;;;1.10;99.90;;;;;;4997890;28;20236;-91
2022/01/16 05:57:50;;;;;;;27.52;20.45;;;1.10;99.90;;;;;;5004462;28;20219;-91
2022/01/16 06:00:17;;;;;;;34.17;21.00;;;1.10;99.90;;;;;;5017732;28;20292;-92
2022/01/16 06:02:44;;;;;;;30.23;19.85;;;1.00;99.90;;;;;;5012428;28;20184;-91
2022/01/16 06:05:12;;;;;;;29.30;19.75;;;1.10;99.90;;;;;;5017350;28;20269;-90
2022/01/16 06:07:40;;;;;;;31.65;21.15;;;1.10;99.90;;;;;;5005962;28;20242;-91
2022/01/16 06:10:08;;;;;;;30.23;19.63;;;1.10;99.90;;;;;;5006367;28;20197;-91
2022/01/16 06:12:35;;;;;;;27.05;19.08;;;1.10;99.90;;;;;;4999542;28;20220;-91
2022/01/16 06:15:05;;;;;;;29.65;20.65;;;1.10;99.90;;;;;;4997887;28;20217;-91
2022/01/16 06:17:31;;;;;;;32.55;24.42;;;1.10;99.90;;;;;;4998395;28;20202;-92
2022/01/16 06:19:58;;;;;;;26.38;19.27;;;1.10;99.90;;;;;;4997143;28;20231;-91
2022/01/16 06:22:25;;;;;;;30.20;20.92;;;1.10;99.90;;;;;;4998725;28;20218;-91
2022/01/16 06:24:52;;;;;;;35.40;22.48;;;1.00;99.90;;;;;;4997009;28;20256;-91
2022/01/16 06:27:19;;;;;;;25.05;18.60;;;1.00;99.90;;;;;;4996009;28;20206;-91
2022/01/16 06:29:46;;;;;;;31.05;21.48;;;1.00;99.90;;;;;;5011058;28;20198;-91
2022/01/16 06:32:14;;;;;;;30.88;21.48;;;1.00;99.90;;;;;;5009942;28;20209;-91
2022/01/16 06:34:41;;;;;;;27.13;20.27;;;1.00;99.90;;;;;;4996120;28;20223;-92
2022/01/16 06:37:08;;;;;;;31.52;20.35;;;1.00;99.90;;;;;;4995756;28;20215;-91
2022/01/16 06:39:36;;;;;;;28.17;19.17;;;1.00;99.90;;;;;;4999000;28;20232;-89
2022/01/16 06:42:03;;;;;;;33.50;19.75;;;1.00;99.90;;;;;;5011162;28;20216;-89
2022/01/16 06:44:30;;;;;;;29.85;20.70;;;0.90;99.90;;;;;;5004337;28;20199;-90
2022/01/16 06:46:57;;;;;;;25.23;18.67;;;0.90;99.90;;;;;;5008742;28;20192;-89
2022/01/16 06:49:25;;;;;;;30.65;19.33;;;0.80;99.90;;;;;;5006993;28;20204;-90
2022/01/16 06:51:52;;;;;;;26.20;18.83;;;0.80;99.90;;;;;;4997261;28;20200;-90
2022/01/16 06:54:19;;;;;;;32.70;21.70;;;0.70;99.90;;;;;;4996019;28;20678;-90
2022/01/16 06:56:46;;;;;;;31.60;21.17;;;0.70;99.90;;;;;;4957894;28;1086033;-89
2022/01/16 06:59:13;;;;;;;30.10;19.20;;;0.70;99.90;;;;;;5008037;28;20210;-90
2022/01/16 07:01:39;;;;;;;30.77;21.00;;;0.60;99.90;;;;;;4996178;28;20204;-90
2022/01/16 07:04:06;;;;;;;27.63;18.42;;;0.40;99.90;;;;;;5016440;28;20184;-91
2022/01/16 07:06:35;;;;;;;32.35;21.63;;;0.40;99.90;;;;;;5006356;28;20216;-90
2022/01/16 07:09:01;;;;;;;26.65;18.90;;;0.40;99.90;;;;;;4998655;28;20200;-90
2022/01/16 07:11:28;;;;;;;29.42;19.92;;;0.30;99.90;;;;;;5016089;28;20200;-88
2022/01/16 07:13:55;;;;;;;26.27;18.48;;;0.30;99.90;;;;;;5011577;28;20204;-90
2022/01/16 07:16:22;;;;;;;29.58;19.48;;;0.30;99.90;;;;;;5015075;28;20216;-90
2022/01/16 07:18:49;;;;;;;34.00;20.58;;;0.30;99.90;;;;;;5001885;28;20204;-90
2022/01/16 07:21:16;;;;;;;29.92;20.10;;;0.20;99.90;;;;;;5000484;28;20224;-91
2022/01/16 07:23:48;;;;;;;33.13;21.17;;;0.20;99.90;;;;;;5015968;28;20904;-91
2022/01/16 07:26:16;;;;;;;33.28;21.98;;;0.10;99.90;;;;;;5001213;28;20235;-91
2022/01/16 07:28:43;;;;;;;33.10;19.95;;;0.20;99.90;;;;;;4996301;28;20223;-91
2022/01/16 07:31:10;;;;;;;30.33;20.88;;;0.20;99.90;;;;;;4999826;28;20250;-91
2022/01/16 07:33:36;;;;;;;31.10;19.42;;;0.20;99.90;;;;;;5020323;28;20206;-90
2022/01/16 07:36:04;;;;;;;30.42;20.38;;;0.30;99.90;;;;;;5008475;28;20599;-91
2022/01/16 07:38:32;;;;;;;28.52;19.25;;;0.30;99.90;;;;;;4984448;28;20287;-90
2022/01/16 07:41:00;;;;;;;31.45;19.02;;;0.30;99.90;;;;;;4997931;28;20224;-91
2022/01/16 07:43:27;;;;;;;28.80;19.70;;;0.20;99.90;;;;;;5000725;28;20208;-92
2022/01/16 07:45:53;;;;;;;26.77;19.17;;;0.20;99.90;;;;;;5000357;28;20275;-91
2022/01/16 07:48:20;;;;;;;27.08;18.17;;;0.30;99.90;;;;;;5002755;28;20204;-91
2022/01/16 07:50:48;;;;;;;31.25;19.65;;;0.30;99.90;;;;;;5001543;28;20197;-91
2022/01/16 07:53:14;;;;;;;29.65;19.30;;;0.40;99.90;;;;;;5001198;28;20206;-91
2022/01/16 07:55:41;;;;;;;28.40;20.48;;;0.40;99.90;;;;;;5065218;23;20245;-87
2022/01/16 07:58:09;;;;;;;29.15;18.70;;;0.50;99.90;;;;;;5057509;28;20214;-88
2022/01/16 08:00:36;;;;;;;28.38;18.75;;;0.50;99.90;;;;;;5056500;28;20271;-87
2022/01/16 08:03:03;;;;;;;24.42;17.95;;;0.50;99.90;;;;;;5055589;28;20198;-87
2022/01/16 08:05:30;;;;;;;26.25;20.10;;;0.40;99.90;;;;;;5064674;28;20700;-87
2022/01/16 08:07:56;;;;;;;34.58;21.88;;;0.20;99.90;;;;;;5063443;28;20198;-87
2022/01/16 08:10:23;;;;;;;32.65;21.38;;;0.30;99.90;;;;;;5039841;28;20226;-87
2022/01/16 08:12:50;;;;;;;30.92;19.55;;;0.40;99.90;;;;;;5038540;28;20205;-87
2022/01/16 08:15:18;;;;;;;29.77;20.30;;;0.40;99.90;;;;;;5036489;28;20223;-87
2022/01/16 08:17:45;;;;;;;24.92;17.95;;;0.50;99.90;;;;;;5056443;28;20733;-87
2022/01/16 08:20:12;;;;;;;25.33;19.25;;;0.50;99.90;;;;;;5056129;28;20632;-86
2022/01/16 08:22:39;;;;;;;28.90;18.98;;;0.60;99.90;;;;;;5055337;28;20232;-86
2022/01/16 08:25:08;;;;;;;27.67;18.95;;;0.70;99.90;;;;;;5054668;28;20218;-86
2022/01/16 08:27:35;;;;;;;24.20;19.02;;;0.80;99.90;;;;;;5053907;28;20206;-87
2022/01/16 08:30:01;;;;;;;24.15;19.55;;;0.90;99.90;;;;;;5035625;28;20207;-86
2022/01/16 08:32:29;;;;;;;25.05;18.73;;;0.90;99.90;;;;;;5055031;28;20194;-86
2022/01/16 08:34:56;;;;;;;29.33;20.42;;;0.90;99.90;;;;;;5055566;28;20202;-87
2022/01/16 08:37:23;;;;;;;26.45;20.27;;;0.90;99.90;;;;;;5045360;28;20202;-87
2022/01/16 08:39:50;;;;;;;23.25;17.83;;;1.10;99.90;;;;;;5055082;28;20218;-86
2022/01/16 08:42:16;;;;;;;27.65;19.92;;;1.10;99.90;;;;;;5062410;28;20228;-87
2022/01/16 08:44:43;;;;;;;29.13;19.65;;;1.10;99.90;;;;;;5055087;28;20210;-86
2022/01/16 08:47:10;;;;;;;30.80;19.85;;;1.20;99.90;;;;;;5065360;28;20210;-87
2022/01/16 08:49:38;;;;;;;29.23;19.90;;;1.30;99.90;;;;;;5044745;28;20214;-87
2022/01/16 08:52:06;;;;;;;26.80;20.52;;;1.40;99.90;;;;;;5046969;28;20200;-86
2022/01/16 08:54:33;;;;;;;28.85;19.17;;;1.60;99.90;;;;;;5034826;28;20213;-87
2022/01/16 08:57:00;;;;;;;25.92;20.63;;;1.90;99.90;;;;;;5046314;28;20303;-87
2022/01/16 08:59:28;;;;;;;29.58;20.52;;;2.20;99.90;;;;;;5061104;28;20197;-85
2022/01/16 09:01:55;;;;;;;28.17;18.80;;;2.30;99.90;;;;;;5045760;28;20224;-85
2022/01/16 09:04:22;;;;;;;30.92;21.00;;;2.20;99.90;;;;;;5050646;28;20211;-85
2022/01/16 09:06:50;;;;;;;25.90;19.92;;;2.10;99.90;;;;;;5062199;28;20221;-85
2022/01/16 09:09:17;;;;;;;27.60;20.65;;;1.90;99.90;;;;;;5049753;28;20617;-85
2022/01/16 09:11:43;;;;;;;28.92;21.50;;;1.80;99.90;;;;;;5043677;28;20257;-85
2022/01/16 09:14:10;;;;;;;24.70;19.80;;;1.70;99.90;;;;;;5048331;28;20198;-85
2022/01/16 09:16:37;;;;;;;28.75;21.90;;;1.60;99.90;;;;;;5054395;28;20230;-85
2022/01/16 09:19:03;;;;;;;27.83;21.70;;;1.70;99.90;;;;;;5042790;28;20207;-86
2022/01/16 09:21:30;;;;;;;29.95;20.10;;;1.70;99.90;;;;;;5043564;28;20218;-86
2022/01/16 09:23:58;;;;;;;27.70;20.85;;;1.70;99.90;;;;;;5060752;28;20202;-86
2022/01/16 09:26:26;;;;;;;27.90;19.70;;;1.70;99.90;;;;;;5064571;28;20720;-86
2022/01/16 09:28:53;;;;;;;25.67;21.50;;;1.70;99.90;;;;;;5054713;28;20201;-86
2022/01/16 09:31:20;;;;;;;41.42;25.55;;;1.80;99.90;;;;;;5039110;28;20276;-86
2022/01/16 09:33:48;;;;;;;30.15;22.75;;;1.70;99.90;;;;;;5039728;28;20202;-86
2022/01/16 09:36:14;;;;;;;30.05;21.23;;;1.70;99.90;;;;;;5034416;28;20226;-87
2022/01/16 09:38:41;;;;;;;25.20;19.95;;;1.80;99.90;;;;;;5062439;28;20197;-89
2022/01/16 09:41:10;;;;;;;28.52;20.73;;;1.60;99.90;;;;;;5060716;28;20223;-86
2022/01/16 09:43:38;;;;;;;30.13;22.23;;;1.70;99.90;;;;;;5033246;28;20196;-86
2022/01/16 09:46:05;;;;;;;30.45;20.15;;;1.80;99.90;;;;;;5047582;28;20215;-87
2022/01/16 09:48:31;;;;;;;27.48;20.25;;;1.90;99.90;;;;;;5035305;28;20200;-86
2022/01/16 09:50:58;;;;;;;29.92;23.25;;;2.00;99.90;;;;;;5039733;28;20197;-86
2022/01/16 09:53:26;;;;;;;35.05;23.17;;;2.00;99.90;;;;;;5030048;28;20205;-87
2022/01/16 09:55:53;;;;;;;30.42;21.65;;;2.10;99.90;;;;;;5030856;28;20289;-86
2022/01/16 09:58:22;;;;;;;26.67;22.02;;;2.20;99.90;;;;;;5024691;28;20203;-86
2022/01/16 10:00:49;;;;;;;30.17;21.77;;;2.30;99.90;;;;;;5038942;28;20785;-86
2022/01/16 10:03:39;;;;;;;29.65;21.35;;;2.30;99.90;;;;;;5027595;28;20231;-86
2022/01/16 10:06:12;;;;;;;30.20;22.55;;;2.40;99.90;;;;;;5022376;28;20607;-86
2022/01/16 10:08:39;;;;;;;29.48;21.10;;;2.50;99.90;;;;;;5028451;28;20200;-84
2022/01/16 10:11:39;;;;;;;26.65;21.85;;;2.60;99.90;;;;;;5025540;28;20318;-84
2022/01/16 10:14:14;;;;;;;28.20;22.70;;;2.60;99.90;;;;;;4983699;28;20190;-85
2022/01/16 10:16:43;;;;;;;30.15;23.42;;;2.60;99.90;;;;;;5040292;28;20218;-87
2022/01/16 10:19:20;;;;;;;29.30;22.70;;;2.50;99.90;;;;;;5056309;28;20191;-88
2022/01/16 10:21:47;;;;;;;27.60;22.30;;;2.60;99.90;;;;;;5044638;28;20229;-86
2022/01/16 10:24:25;;;;;;;29.08;21.75;;;2.60;99.90;;;;;;5031348;28;20661;-86
2022/01/16 10:27:14;;;;;;;28.52;22.55;;;2.60;99.90;;;;;;5027729;28;20748;-84
2022/01/16 10:29:44;;;;;;;29.55;21.75;;;2.60;99.90;;;;;;5027062;28;20216;-85
2022/01/16 10:32:13;;;;;;;29.75;23.08;;;2.70;99.90;;;;;;5031153;28;20220;-85
2022/01/16 10:34:40;;;;;;;24.75;20.67;;;2.70;99.90;;;;;;5040046;28;20484;-85
2022/01/16 10:37:20;;;;;;;27.98;22.50;;;2.90;99.90;;;;;;5042763;28;20290;-85
2022/01/16 10:39:56;;;;;;;28.95;23.25;;;3.00;99.90;;;;;;5037730;28;20202;-85
2022/01/16 10:42:23;;;;;;;31.17;23.02;;;3.10;99.90;;;;;;5026829;28;20228;-86
2022/01/16 10:45:02;;;;;;;27.80;22.10;;;3.20;99.90;;;;;;5039044;28;20202;-85
2022/01/16 10:47:35;;;;;;;32.97;23.87;;;3.30;99.90;;;;;;5029939;28;20844;-87
2022/01/16 10:50:09;;;;;;;30.88;23.75;;;3.40;99.90;;;;;;5025330;28;20455;-86
2022/01/16 10:52:57;;;;;;;28.13;21.88;;;3.40;99.90;;;;;;5028057;28;20219;-86
2022/01/16 10:55:33;;;;;;;29.70;22.33;;;3.60;99.90;;;;;;5025275;28;20252;-86
2022/01/16 10:58:16;;;;;;;29.45;22.58;;;3.60;99.90;;;;;;5024897;28;20453;-84
2022/01/16 11:00:51;;;;;;;32.70;23.80;;;3.60;99.90;;;;;;5034845;28;20223;-85
2022/01/16 11:03:19;;;;;;;32.20;23.50;;;3.70;99.90;;;;;;5025495;28;20840;-85
2022/01/16 11:05:47;;;;;;;27.10;21.90;;;3.70;99.90;;;;;;5026728;28;20459;-84
2022/01/16 11:08:15;;;;;;;30.37;22.10;;;3.80;99.90;;;;;;5032181;28;20452;-86
2022/01/16 11:10:45;;;;;;;29.73;24.00;;;3.90;99.90;;;;;;5029169;28;20975;-85
2022/01/16 11:13:14;;;;;;;32.00;24.90;;;3.90;99.90;;;;;;5034590;28;20463;-87
2022/01/16 11:15:42;;;;;;;36.10;24.17;;;4.10;99.90;;;;;;5034327;28;20470;-87
2022/01/16 11:18:11;;;;;;;34.33;24.97;;;4.30;99.90;;;;;;5026874;28;20454;-88
2022/01/16 11:20:39;;;;;;;30.57;23.90;;;4.30;99.90;;;;;;5035345;28;20535;-88
2022/01/16 11:23:15;;;;;;;28.73;22.77;;;4.40;99.90;;;;;;5030477;28;20442;-87
2022/01/16 11:25:44;;;;;;;29.00;23.00;;;4.40;99.90;;;;;;5028702;28;20468;-86
2022/01/16 11:28:14;;;;;;;29.40;22.33;;;4.50;99.90;;;;;;5031171;28;20459;-86
2022/01/16 11:30:44;;;;;;;29.53;24.07;;;4.50;99.90;;;;;;5026379;28;20478;-85
2022/01/16 11:33:12;;;;;;;29.60;23.60;;;4.50;99.90;;;;;;5030783;28;20466;-87
2022/01/16 11:35:46;;;;;;;26.97;21.07;;;4.70;99.90;;;;;;5028636;28;20456;-85
2022/01/16 11:38:13;;;;;;;28.37;21.50;;;4.80;99.90;;;;;;5026820;28;20947;-87
2022/01/16 11:40:46;;;;;;;27.93;23.10;;;4.80;99.90;;;;;;5027651;28;20470;-86
2022/01/16 11:43:31;;;;;;;32.90;22.70;;;4.70;99.90;;;;;;5029126;28;20451;-86
2022/01/16 11:46:10;;;;;;;28.67;22.17;;;4.70;99.90;;;;;;5028904;28;20850;-87
2022/01/16 11:48:55;;;;;;;36.00;24.93;;;4.80;99.90;;;;;;5036135;28;20452;-84
2022/01/16 11:52:02;;;;;;;31.83;26.13;;;4.80;99.90;;;;;;5034709;28;20451;-85
2022/01/16 11:54:41;;;;;;;35.00;25.20;;;4.60;99.90;;;;;;5033560;28;20475;-86
2022/01/16 11:57:31;;;;;;;33.53;24.20;;;4.60;99.90;;;;;;5032643;28;20509;-89
2022/01/16 12:00:14;;;;;;;33.27;24.40;;;4.40;99.90;;;;;;5031975;28;20537;-84
2022/01/16 12:02:43;;;;;;;33.73;24.60;;;4.30;99.90;;;;;;5040188;28;20538;-86
2022/01/16 12:05:20;;;;;;;30.60;24.37;;;4.30;99.90;;;;;;5040953;28;20535;-86
2022/01/16 12:07:56;;;;;;;38.33;25.10;;;4.30;99.90;;;;;;5035460;28;20436;-86
2022/01/16 12:10:57;;;;;;;43.43;26.67;;;4.20;99.90;;;;;;5039474;28;20448;-85
2022/01/16 12:13:49;;;;;;;36.33;23.60;;;4.40;99.90;;;;;;4978746;28;20474;-86
2022/01/16 12:16:36;;;;;;;31.97;20.57;;;5.30;99.90;;;;;;5038611;28;20487;-85
2022/01/16 12:19:45;;;;;;;31.73;22.33;;;6.40;99.90;;;;;;5033544;28;20441;-87
2022/01/16 12:22:35;;;;;;;33.00;23.33;;;8.50;99.90;;;;;;5039385;28;20485;-86
2022/01/16 12:25:04;;;;;;;33.00;23.90;;;8.40;98.70;;;;;;5035935;28;20809;-85
2022/01/16 12:27:44;;;;;;;36.03;26.10;;;7.60;99.30;;;;;;5033563;28;20450;-83
2022/01/16 12:30:38;;;;;;;31.60;22.70;;;7.20;99.90;;;;;;5032127;28;20581;-84
2022/01/16 12:33:11;;;;;;;28.63;20.47;;;6.80;99.90;;;;;;5030330;28;20477;-85
2022/01/16 12:36:10;;;;;;;31.57;21.30;;;6.50;99.90;;;;;;5032565;28;20477;-87
2022/01/16 12:39:03;;;;;;;28.73;21.07;;;6.20;99.90;;;;;;5033703;28;20959;-87
2022/01/16 12:41:40;;;;;;;25.73;18.57;;;6.00;99.90;;;;;;5033986;28;20921;-86
2022/01/16 12:44:10;;;;;;;27.13;18.87;;;5.90;99.90;;;;;;5029297;28;20853;-87
2022/01/16 12:46:40;;;;;;;28.10;18.43;;;5.70;99.90;;;;;;5035515;28;20472;-86
2022/01/16 12:49:10;;;;;;;24.90;17.10;;;5.70;99.90;;;;;;5044472;28;20569;-85
2022/01/16 12:51:40;;;;;;;26.63;19.17;;;5.60;99.90;;;;;;5032342;28;20491;-86
2022/01/16 12:54:11;;;;;;;19.30;14.70;;;5.70;99.90;;;;;;5032446;28;20453;-86
2022/01/16 12:56:41;;;;;;;23.17;17.10;;;5.80;99.90;;;;;;5026383;28;20511;-85
2022/01/16 12:59:11;;;;;;;17.90;13.30;;;5.80;99.90;;;;;;5026984;28;20521;-87
2022/01/16 13:01:43;;;;;;;20.90;14.73;;;6.10;99.90;;;;;;5037563;28;20485;-87
2022/01/16 13:04:18;;;;;;;22.30;16.40;;;6.10;99.90;;;;;;5035719;28;20442;-88
2022/01/16 13:06:45;;;;;;;24.53;15.53;;;6.10;99.90;;;;;;5029395;28;20472;-85
2022/01/16 13:09:13;;;;;;;24.80;18.47;;;5.90;99.90;;;;;;5028678;28;20448;-87
2022/01/16 13:11:42;;;;;;;24.60;16.60;;;5.80;99.90;;;;;;5027762;28;20445;-88
2022/01/16 13:14:10;;;;;;;19.33;14.07;;;5.80;99.90;;;;;;5027419;28;20956;-85
2022/01/16 13:16:38;;;;;;;19.37;14.87;;;5.70;99.90;;;;;;5026590;28;20469;-88
2022/01/16 13:19:08;;;;;;;20.47;15.07;;;5.80;99.90;;;;;;5028549;28;20453;-83
2022/01/16 13:22:02;;;;;;;22.50;15.20;;;5.70;99.90;;;;;;5031497;28;20478;-84
2022/01/16 13:24:36;;;;;;;22.10;15.00;;;5.70;99.90;;;;;;5027234;28;20442;-86
2022/01/16 13:27:05;;;;;;;18.87;14.40;;;5.80;99.90;;;;;;5031921;28;20465;-86
2022/01/16 13:29:33;;;;;;;21.53;15.60;;;5.70;99.90;;;;;;5035988;28;20445;-88
2022/01/16 13:32:03;;;;;;;22.20;15.67;;;5.70;99.90;;;;;;5043376;28;20464;-87